RJAA(TAF)
8/13 2h
TAF RJAA 121713Z 1218/1400 18012KT 9999 FEW015 TEMPO 1300/1306
16016G26KT BECMG 1306/1309 18020G30KT TEMPO 1309/1315 2000
+TSRA BR FEW003 BKN005 FEW020CB BECMG 1321/1400 22010KT=
戻る
トップページへ戻る
IMOC Co,.Ltd.